الصفحة الرئيسية
METAR-TAF:

METAR-TAF

مطار :

نيجنفارتوفسك, روسيا

دائرة عرض: 60-56N, خط طول: 076-29E, ارتفاع: 54 متر

مراقبة الطقس الحالي

تاريخ ووقت الإصدار 34 دقيقة قبل الساعة 13:30UTC
ريح 10 عقدة من الجنوب/الجنوب الغربي
درجة الحرارة 15°درجة مئوية
الرطوبة 94%
ضغط 995 hPa
الرؤية 10 كم أو أكثر
غيوم متفرقة على ارتفاع 3000 قدم, مزنة ركامية.

METAR: USNN 231330Z 21005MPS 9999 SCT030CB 15/14 Q0995 R21/290350 NOSIG RMK QFE741

زمن: 19:04 (14:04 UTC)

توقعات

تاريخ ووقت الإصدار 3ساعات و 4 دقيقة قبل الساعة 11:00UTC
التوقعات صالحة من23 الساعة 12 UTC إلى 24 الساعة 12 UTC
ريح 14 عقدة من الجنوب/الجنوب الغربي تتزايد حتى 25 عقدة
الرؤية 10 كم أو أكثر
غيوم متفرقة على ارتفاع 2000 قدم, مزنة ركامية.
مؤقت
من 23 الساعة 12 UTC إلى 23 الساعة 18 UTC
ريح 29 عقدةمن اتجاهات متغيرة
الرؤية: 2000 متر
غيوم مفككة على ارتفاع 700 قدم
غيوم مفككة على ارتفاع 1500 قدم, مزنة ركامية.
عاصفة رعدية, مطر, عاصفة مفاجئة
أصبح
من 24 الساعة 00 UTC إلى 24 الساعة 01 UTC
ريح 6 عقدة من الشمال الغربي

TAF: USNN 231100Z 2312/2412 20007G13MPS 9999 SCT020CB TEMPO 2312/2318 VRB15MPS 2000 TSRA SQ BKN007 BKN015CB BECMG 2400/2401 31003MPS

أرصاد الطقس والتوقعات من أكثر من 4000 مطار (تقارير الطقس للمطار METAR والتنبؤ بالطقس بالمطارTAF).

المحطات المتاحة هي النقط الصفراء والحمراء على الخريطة.

حرك المؤشر فوق النقطة لمعرفة اسم المحطة.

ثم انقر لمعرفة أرصاد وتوقعات الطقس.

لتغيير الخارطة: اضغط على الأزرار الخضراء مع رمز الصليب الأسود للتكبير. على الزر الأخضر مع شرطة للتصغير، أو على الأسهم الخضراء للخرائط المجاورة.


METAR-TAF: